»·PEaware :: UAL205 KSFO-KPDX

UAL205 :: KSFO-KPDX

FLIGHT INFORMATION

Flight Status: Arrived
Operator:
United Airlines
More flights by this operator :: More flights under this callsign
Pilot: Anonymous 14085 (14085)
Aircraft: AIRBUS A320
(A320)
More flights by this aircraft type
Origin: KSFO San Francisco Intl
United States
Destination: KPDX Portland Intl
United States
More flights between these airports :: More routes between these airports
Route: TRUKN2 GRTFL MACHU TMBRS2
File this flight plan on PilotEdge
Remarks: PBN / A1B1C1D1O1S1 DOF / 170609 REG / N320SB EET / KZSE0031 OPR / UAL RMK / TCAS SIMBRIEF
Altitude:
(Current/Filed)
36,000ft
Speed:
(Current/Filed)
437kts
Departed: 08-Jun-17 07:17 PM
Arrived: 08-Jun-17 08:31 PM
Distance/Time
Traveled:
478nm/1:14
Distance/Time
To Go:
Arrived

Flight Plot

Page will automatically refresh every two minutes.


Map Options




Map Legend


Flown Route
Filed Route
Departure Airport
Arrival Airport
Navaid (VOR, NDB)
Fix

Horizontal Profiles

Position Reports

Time Latitude Longitude Heading Altitude Ground
Speed
08-Jun-17 18:34 37.617689 -122.388835 159 20ft 0kts
08-Jun-17 18:35 37.617689 -122.388835 159 20ft 0kts
08-Jun-17 18:36 37.617689 -122.388835 159 20ft 0kts
08-Jun-17 18:37 37.617689 -122.388835 159 20ft 0kts
08-Jun-17 18:38 37.617689 -122.388835 159 20ft 0kts
08-Jun-17 18:39 37.617689 -122.388835 159 20ft 0kts
08-Jun-17 18:40 37.617689 -122.388835 159 20ft 0kts
08-Jun-17 18:41 37.617689 -122.388835 159 20ft 0kts
08-Jun-17 18:42 37.617687 -122.388835 158 20ft 0kts
08-Jun-17 18:43 37.617687 -122.388835 158 20ft 0kts
08-Jun-17 18:49 37.617689 -122.388834 159 20ft 0kts
08-Jun-17 18:50 37.617689 -122.388834 159 20ft 0kts
08-Jun-17 18:51 37.617689 -122.388834 159 20ft 0kts
08-Jun-17 18:52 37.617689 -122.388834 159 20ft 0kts
08-Jun-17 18:53 37.617689 -122.388834 159 20ft 0kts
08-Jun-17 18:54 37.617689 -122.388834 159 20ft 0kts
08-Jun-17 18:55 37.617689 -122.388834 159 20ft 0kts
08-Jun-17 18:56 37.617689 -122.388834 159 20ft 0kts
08-Jun-17 18:57 37.617689 -122.388834 159 20ft 0kts
08-Jun-17 18:58 37.617689 -122.388834 159 20ft 0kts
08-Jun-17 18:59 37.617689 -122.388834 159 20ft 0kts
08-Jun-17 19:00 37.617689 -122.388834 159 20ft 0kts
08-Jun-17 19:01 37.617689 -122.388834 159 20ft 0kts
08-Jun-17 19:02 37.617689 -122.388834 159 20ft 0kts
08-Jun-17 19:03 37.617689 -122.388834 159 20ft 0kts
08-Jun-17 19:04 37.617689 -122.388834 159 20ft 0kts
08-Jun-17 19:05 37.617689 -122.388835 159 20ft 0kts
08-Jun-17 19:06 37.617689 -122.388835 159 20ft 0kts
08-Jun-17 19:07 37.617689 -122.388835 159 20ft 0kts
08-Jun-17 19:08 37.618491 -122.389222 159 20ft 0kts
08-Jun-17 19:09 37.619323 -122.389626 159 20ft 0kts
08-Jun-17 19:10 37.619141 -122.389643 227 21ft 2kts
08-Jun-17 19:11 37.619478 -122.391736 296 21ft 0kts
08-Jun-17 19:12 37.619838 -122.392600 308 20ft 5kts
08-Jun-17 19:13 37.622410 -122.390300 71 21ft 15kts
08-Jun-17 19:14 37.621155 -122.385636 119 20ft 21kts
08-Jun-17 19:15 37.618725 -122.380077 140 20ft 16kts
08-Jun-17 19:16 37.614913 -122.380788 204 20ft 15kts
08-Jun-17 19:17 37.609407 -122.383957 135 21ft 17kts
08-Jun-17 19:18 37.608544 -122.383844 157 20ft 0kts
08-Jun-17 19:19 37.610044 -122.381494 27 20ft 54kts
08-Jun-17 19:20 37.638484 -122.358746 57 964ft 155kts
08-Jun-17 19:21 37.663363 -122.312801 54 1619ft 234kts
08-Jun-17 19:22 37.702685 -122.243402 57 3934ft 280kts
08-Jun-17 19:23 37.773179 -122.217412 358 7101ft 290kts
08-Jun-17 19:24 37.850082 -122.218121 355 9860ft 306kts
08-Jun-17 19:25 37.947050 -122.220766 355 10536ft 401kts
08-Jun-17 19:26 38.048969 -122.223278 354 12664ft 428kts
08-Jun-17 19:27 38.165047 -122.226335 353 15278ft 442kts
08-Jun-17 19:28 38.275471 -122.229299 352 17433ft 455kts
08-Jun-17 19:29 38.388059 -122.235045 348 19418ft 463kts
08-Jun-17 19:30 38.517756 -122.249084 348 21419ft 477kts
08-Jun-17 19:31 38.651057 -122.263353 348 23197ft 489kts
08-Jun-17 19:32 38.787405 -122.278013 348 24774ft 500kts
08-Jun-17 19:33 38.925210 -122.292844 348 26706ft 498kts
08-Jun-17 19:34 39.062432 -122.307711 348 28451ft 496kts
08-Jun-17 19:35 39.195670 -122.322148 348 29981ft 494kts
08-Jun-17 19:36 39.331582 -122.336974 348 31424ft 490kts
08-Jun-17 19:37 39.466373 -122.351736 348 32710ft 487kts
08-Jun-17 19:38 39.600392 -122.366473 348 33817ft 484kts
08-Jun-17 19:39 39.733663 -122.381130 349 34735ft 483kts
08-Jun-17 19:40 39.866310 -122.395144 349 35582ft 480kts
08-Jun-17 19:41 39.997511 -122.409035 348 36055ft 471kts
08-Jun-17 19:42 40.126866 -122.422873 349 36041ft 481kts
08-Jun-17 19:43 40.257315 -122.436795 349 36048ft 480kts
08-Jun-17 19:44 40.389701 -122.451001 349 36049ft 479kts
08-Jun-17 19:45 40.520421 -122.465100 349 36049ft 480kts
08-Jun-17 19:46 40.652067 -122.479355 349 36049ft 480kts
08-Jun-17 19:47 40.785020 -122.493811 349 36050ft 481kts
08-Jun-17 19:48 40.917695 -122.508281 349 36049ft 480kts
08-Jun-17 19:49 41.050415 -122.522831 349 36049ft 481kts
08-Jun-17 19:50 41.175700 -122.536570 349 36047ft 481kts
08-Jun-17 19:51 41.307752 -122.551150 349 36047ft 481kts
08-Jun-17 19:52 41.440549 -122.565878 349 36007ft 482kts
08-Jun-17 19:53 41.573599 -122.578382 351 35995ft 484kts
08-Jun-17 19:54 41.707444 -122.587129 351 35996ft 483kts
08-Jun-17 19:55 41.841472 -122.595889 351 35995ft 483kts
08-Jun-17 19:56 41.975483 -122.604687 351 35995ft 484kts
08-Jun-17 19:57 42.106652 -122.613328 351 36018ft 484kts
08-Jun-17 19:58 42.238206 -122.622021 351 36022ft 484kts
08-Jun-17 19:59 42.371971 -122.630949 351 36022ft 484kts
08-Jun-17 20:00 42.505577 -122.639914 351 36022ft 485kts
08-Jun-17 20:01 42.640065 -122.648965 351 36021ft 484kts
08-Jun-17 20:02 42.771436 -122.657973 351 36031ft 484kts
08-Jun-17 20:03 42.905091 -122.667065 351 36060ft 484kts
08-Jun-17 20:04 43.039000 -122.676205 351 36061ft 484kts
08-Jun-17 20:05 43.167333 -122.684965 351 36052ft 484kts
08-Jun-17 20:06 43.248244 -122.690530 351 36054ft 484kts
08-Jun-17 20:07 43.306251 -122.694525 351 36054ft 484kts
08-Jun-17 20:08 43.439982 -122.703786 351 36055ft 484kts
08-Jun-17 20:09 43.572800 -122.713011 351 35021ft 484kts
08-Jun-17 20:10 43.707751 -122.722340 351 33729ft 485kts
08-Jun-17 20:11 43.842839 -122.731745 351 32293ft 491kts
08-Jun-17 20:12 43.979023 -122.741262 351 30764ft 494kts
08-Jun-17 20:13 44.111704 -122.750573 351 29234ft 497kts
08-Jun-17 20:14 44.236590 -122.744548 359 27823ft 504kts
08-Jun-17 20:15 44.371728 -122.731416 359 26289ft 511kts
08-Jun-17 20:16 44.512954 -122.717351 0 24525ft 516kts
08-Jun-17 20:17 44.651987 -122.703531 1 21182ft 495kts
08-Jun-17 20:18 44.781835 -122.690477 1 18028ft 473kts
08-Jun-17 20:19 44.908823 -122.677702 2 14981ft 449kts
08-Jun-17 20:20 45.029631 -122.665461 3 12057ft 427kts
08-Jun-17 20:21 45.135741 -122.654647 3 9674ft 384kts
08-Jun-17 20:22 45.224570 -122.645606 3 8174ft 333kts
08-Jun-17 20:23 45.302013 -122.595034 33 6989ft 292kts
08-Jun-17 20:24 45.365668 -122.538513 34 6979ft 262kts
08-Jun-17 20:25 45.392820 -122.454275 94 6145ft 255kts
08-Jun-17 20:26 45.393039 -122.353167 94 4532ft 256kts
08-Jun-17 20:27 45.436734 -122.300247 330 3342ft 258kts
08-Jun-17 20:28 45.492977 -122.352386 317 2973ft 227kts
08-Jun-17 20:29 45.516842 -122.419857 294 2648ft 175kts
08-Jun-17 20:30 45.536956 -122.472077 295 1772ft 133kts
08-Jun-17 20:31 45.555254 -122.518968 295 1092ft 135kts
08-Jun-17 20:32 45.573413 -122.565352 294 362ft 133kts
08-Jun-17 20:33 45.585321 -122.596255 304 24ft 12kts
08-Jun-17 20:35 45.588184 -122.595795 36 24ft 0kts

Navigation Log

Ident Type
1. KSFO Airport
2. KPDX Airport